createdAt,value
2019-01-23T00:00:44.673Z,56.60
2019-01-23T00:03:12.213Z,58.47
2019-01-23T00:05:39.496Z,55.10
2019-01-23T00:08:06.780Z,61.13
2019-01-23T00:10:34.102Z,56.63
2019-01-23T00:13:01.379Z,53.37
2019-01-23T00:15:28.906Z,56.93
2019-01-23T00:17:56.181Z,55.33
2019-01-23T00:20:23.706Z,48.60
2019-01-23T00:22:50.992Z,52.63
2019-01-23T00:25:18.239Z,54.97
2019-01-23T00:27:45.795Z,59.13
2019-01-23T00:30:14.418Z,54.40
2019-01-23T00:32:41.982Z,56.50
2019-01-23T00:35:09.229Z,52.60
2019-01-23T00:37:36.497Z,60.80
2019-01-23T00:40:05.322Z,62.27
2019-01-23T00:42:32.602Z,59.80
2019-01-23T00:45:00.273Z,61.20
2019-01-23T00:47:27.553Z,56.20
2019-01-23T00:49:54.905Z,60.07
2019-01-23T00:52:22.160Z,62.30
2019-01-23T00:54:49.447Z,58.63
2019-01-23T00:57:16.697Z,60.40
2019-01-23T00:59:43.985Z,66.03
2019-01-23T01:02:11.257Z,56.17
2019-01-23T01:04:38.533Z,54.90
2019-01-23T01:07:05.860Z,56.93
2019-01-23T01:09:33.390Z,59.27
2019-01-23T01:12:00.642Z,55.87
2019-01-23T01:14:27.925Z,55.07
2019-01-23T01:16:55.210Z,58.80
2019-01-23T01:19:22.466Z,62.07
2019-01-23T01:21:49.738Z,59.83
2019-01-23T01:24:17.017Z,70.70
2019-01-23T01:26:44.526Z,59.37
2019-01-23T01:29:11.806Z,67.23
2019-01-23T01:31:39.062Z,63.80
2019-01-23T01:34:06.349Z,61.00
2019-01-23T01:36:33.638Z,68.20
2019-01-23T01:39:00.949Z,63.47
2019-01-23T01:41:28.201Z,65.37
2019-01-23T01:43:55.489Z,66.17
2019-01-23T01:46:23.033Z,59.40
2019-01-23T01:48:50.530Z,64.13
2019-01-23T01:51:17.806Z,62.10
2019-01-23T01:53:45.342Z,61.97
2019-01-23T01:56:12.669Z,66.77
2019-01-23T01:58:39.940Z,64.63
2019-01-23T02:01:07.221Z,59.07
2019-01-23T02:03:34.501Z,59.70
2019-01-23T02:06:01.990Z,62.57
2019-01-23T02:08:29.270Z,56.17
2019-01-23T02:10:56.603Z,60.20
2019-01-23T02:13:23.877Z,60.73
2019-01-23T02:15:51.159Z,57.17
2019-01-23T02:18:18.491Z,62.90
2019-01-23T02:20:45.769Z,56.53
2019-01-23T02:23:13.018Z,60.87
2019-01-23T02:25:40.297Z,61.10
2019-01-23T02:28:07.554Z,54.07
2019-01-23T02:30:35.044Z,57.83
2019-01-23T02:33:02.565Z,55.50
2019-01-23T02:35:29.841Z,58.00
2019-01-23T02:37:57.101Z,59.70
2019-01-23T02:40:24.381Z,60.20
2019-01-23T02:42:51.905Z,53.43
2019-01-23T02:45:19.266Z,55.83
2019-01-23T02:47:46.622Z,60.33
2019-01-23T02:50:14.239Z,51.90
2019-01-23T02:52:41.600Z,50.00
2019-01-23T02:55:09.814Z,52.33
2019-01-23T02:57:37.102Z,62.47
2019-01-23T03:00:05.960Z,57.80
2019-01-23T03:02:33.246Z,59.23
2019-01-23T03:05:00.520Z,54.97
2019-01-23T03:07:27.815Z,58.10
2019-01-23T03:09:55.322Z,60.53
2019-01-23T03:12:22.827Z,58.47
2019-01-23T03:14:50.166Z,53.13
2019-01-23T03:17:17.413Z,57.77
2019-01-23T03:19:44.765Z,58.43
2019-01-23T03:22:12.269Z,54.80
2019-01-23T03:24:39.554Z,53.50
2019-01-23T03:27:07.079Z,54.63
2019-01-23T03:29:34.444Z,48.13
2019-01-23T03:32:01.696Z,54.60
2019-01-23T03:34:28.973Z,55.63
2019-01-23T03:36:56.305Z,51.93
2019-01-23T03:39:23.646Z,49.67
2019-01-23T03:41:50.917Z,57.70
2019-01-23T03:44:18.270Z,53.83
2019-01-23T03:46:45.522Z,54.10
2019-01-23T03:49:12.768Z,56.47
2019-01-23T03:51:40.120Z,47.57
2019-01-23T03:54:07.386Z,48.37
2019-01-23T03:56:34.676Z,47.90
2019-01-23T03:59:01.993Z,56.70
2019-01-23T04:01:29.546Z,53.37
2019-01-23T04:03:57.115Z,53.43
2019-01-23T04:06:24.438Z,51.57
2019-01-23T04:08:51.935Z,46.50
2019-01-23T04:11:19.215Z,59.00
2019-01-23T04:13:46.456Z,50.93
2019-01-23T04:16:13.985Z,55.87
2019-01-23T04:18:41.312Z,52.77
2019-01-23T04:21:08.585Z,58.43
2019-01-23T04:23:35.841Z,50.37
2019-01-23T04:26:03.116Z,49.30
2019-01-23T04:28:30.404Z,48.80
2019-01-23T04:30:57.721Z,55.60
2019-01-23T04:33:24.997Z,51.77
2019-01-23T04:35:52.251Z,56.73
2019-01-23T04:38:19.778Z,52.47
2019-01-23T04:40:47.059Z,52.53
2019-01-23T04:43:14.560Z,54.40
2019-01-23T04:45:41.837Z,51.70
2019-01-23T04:48:09.386Z,56.40
2019-01-23T04:50:38.277Z,56.50
2019-01-23T04:53:12.974Z,51.33
2019-01-23T04:55:40.368Z,52.40
2019-01-23T04:58:07.642Z,52.87
2019-01-23T05:00:34.899Z,47.17
2019-01-23T05:03:02.179Z,44.77
2019-01-23T05:05:29.498Z,48.60
2019-01-23T05:07:56.773Z,47.30
2019-01-23T05:10:24.067Z,52.23
2019-01-23T05:12:51.310Z,50.40
2019-01-23T05:15:18.851Z,43.23
2019-01-23T05:17:46.129Z,48.03
2019-01-23T05:20:14.069Z,44.43
2019-01-23T05:22:41.401Z,55.80
2019-01-23T05:25:08.750Z,48.10
2019-01-23T05:27:36.266Z,47.13
2019-01-23T05:30:05.314Z,52.70
2019-01-23T05:32:32.598Z,47.60
2019-01-23T05:35:00.329Z,48.93
2019-01-23T05:37:27.674Z,52.93
2019-01-23T05:39:55.014Z,51.33
2019-01-23T05:42:22.524Z,45.30
2019-01-23T05:44:49.799Z,43.80
2019-01-23T05:47:17.052Z,45.07
2019-01-23T05:49:44.338Z,47.23
2019-01-23T05:52:11.667Z,52.47
2019-01-23T05:54:38.946Z,52.40
2019-01-23T05:57:06.200Z,44.43
2019-01-23T05:59:33.481Z,53.17
2019-01-23T06:02:00.725Z,51.97
2019-01-23T06:04:28.081Z,52.00
2019-01-23T06:06:55.586Z,46.90
2019-01-23T06:09:22.926Z,42.67
2019-01-23T06:11:50.181Z,45.03
2019-01-23T06:14:17.727Z,44.80
2019-01-23T06:16:45.006Z,45.30
2019-01-23T06:19:12.302Z,42.93
2019-01-23T06:21:39.807Z,46.03
2019-01-23T06:24:07.059Z,48.67
2019-01-23T06:26:34.339Z,51.57
2019-01-23T06:29:01.698Z,49.13
2019-01-23T06:31:28.970Z,44.37
2019-01-23T06:33:56.330Z,44.30
2019-01-23T06:36:23.616Z,49.20
2019-01-23T06:38:50.865Z,43.40
2019-01-23T06:41:18.361Z,44.27
2019-01-23T06:43:45.646Z,46.90
2019-01-23T06:46:12.899Z,44.97
2019-01-23T06:48:40.169Z,45.80
2019-01-23T06:51:07.449Z,44.20
2019-01-23T06:53:34.738Z,45.03
2019-01-23T06:56:02.296Z,43.33
2019-01-23T06:58:29.790Z,45.80
2019-01-23T07:00:57.073Z,49.90
2019-01-23T07:03:24.325Z,45.60
2019-01-23T07:05:51.851Z,44.93
2019-01-23T07:08:19.382Z,49.13
2019-01-23T07:10:46.878Z,47.10
2019-01-23T07:13:14.158Z,44.58
2019-01-23T07:15:41.414Z,43.85
2019-01-23T07:18:08.957Z,46.60
2019-01-23T07:20:36.466Z,49.03
2019-01-23T07:23:03.718Z,47.13
2019-01-23T07:25:31.003Z,45.57
2019-01-23T07:27:58.255Z,52.13
2019-01-23T07:30:26.780Z,46.43
2019-01-23T07:32:54.067Z,47.60
2019-01-23T07:35:21.313Z,44.77
2019-01-23T07:37:48.570Z,42.60
2019-01-23T07:40:15.934Z,53.77
2019-01-23T07:42:43.186Z,49.87
2019-01-23T07:45:23.771Z,49.40
2019-01-23T07:47:51.031Z,47.20
2019-01-23T07:50:18.285Z,49.10
2019-01-23T07:52:45.891Z,47.57
2019-01-23T07:55:17.284Z,57.50
2019-01-23T07:57:44.569Z,52.17
2019-01-23T08:00:13.546Z,65.23
2019-01-23T08:02:40.980Z,56.47
2019-01-23T08:05:09.826Z,51.13
2019-01-23T08:07:37.072Z,55.03
2019-01-23T08:10:06.469Z,52.70
2019-01-23T08:12:33.803Z,52.87
2019-01-23T08:15:01.336Z,54.47
2019-01-23T08:17:32.702Z,51.03
2019-01-23T08:19:57.898Z,53.80
2019-01-23T08:22:25.151Z,52.60
2019-01-23T08:24:52.434Z,49.10
2019-01-23T08:27:19.709Z,49.47
2019-01-23T08:29:46.962Z,53.70
2019-01-23T08:32:14.481Z,51.80
2019-01-23T08:34:42.015Z,54.13
2019-01-23T08:37:09.265Z,49.47
2019-01-23T08:39:36.537Z,50.87
2019-01-23T08:42:03.787Z,53.67
2019-01-23T08:44:31.139Z,49.80
2019-01-23T08:46:58.385Z,56.20
2019-01-23T08:49:25.694Z,48.27
2019-01-23T08:51:52.938Z,58.60
2019-01-23T08:54:20.194Z,57.23
2019-01-23T08:56:47.469Z,53.33
2019-01-23T08:59:14.802Z,53.20
2019-01-23T09:01:42.086Z,41.27
2019-01-23T09:04:09.401Z,46.13
2019-01-23T09:06:36.750Z,51.43
2019-01-23T09:09:05.625Z,50.20
2019-01-23T09:11:32.902Z,50.50
2019-01-23T09:14:00.170Z,44.57
2019-01-23T09:16:27.414Z,46.70
2019-01-23T09:18:55.332Z,49.37
2019-01-23T09:21:22.588Z,46.10
2019-01-23T09:23:49.942Z,49.73
2019-01-23T09:26:17.496Z,52.03
2019-01-23T09:28:44.749Z,46.17
2019-01-23T09:31:19.582Z,50.47
2019-01-23T09:33:48.399Z,46.00
2019-01-23T09:36:35.307Z,51.07
2019-01-23T09:39:05.146Z,58.73
2019-01-23T09:41:36.838Z,48.47
2019-01-23T09:44:08.611Z,49.83
2019-01-23T09:46:37.394Z,52.20
2019-01-23T09:49:06.191Z,48.13
2019-01-23T09:51:51.505Z,47.13
2019-01-23T09:54:18.789Z,45.13
2019-01-23T09:56:46.379Z,47.47
2019-01-23T09:59:13.883Z,46.50
2019-01-23T10:01:41.162Z,53.57
2019-01-23T10:04:08.419Z,46.53
2019-01-23T10:06:35.710Z,54.27
2019-01-23T10:09:04.282Z,43.43
2019-01-23T10:11:31.540Z,48.37
2019-01-23T10:13:58.897Z,43.70
2019-01-23T10:16:26.390Z,45.97
2019-01-23T10:18:56.107Z,44.87
2019-01-23T10:21:23.086Z,46.50
2019-01-23T10:23:50.337Z,45.07
2019-01-23T10:26:17.632Z,50.97
2019-01-23T10:28:44.873Z,47.73
2019-01-23T10:31:12.124Z,51.17
2019-01-23T10:33:39.655Z,48.50
2019-01-23T10:36:06.977Z,49.77
2019-01-23T10:38:34.258Z,52.17
2019-01-23T10:41:01.793Z,81.33
2019-01-23T10:43:29.297Z,63.60
2019-01-23T10:45:56.650Z,58.63
2019-01-23T10:48:23.930Z,53.97
2019-01-23T10:50:51.203Z,51.00
2019-01-23T10:53:18.474Z,52.43
2019-01-23T10:55:45.759Z,53.17
2019-01-23T10:58:13.030Z,50.20
2019-01-23T11:00:40.720Z,53.73
2019-01-23T11:03:10.068Z,52.43
2019-01-23T11:05:37.265Z,55.43
2019-01-23T11:08:04.590Z,49.03
2019-01-23T11:10:32.113Z,50.80
2019-01-23T11:12:59.371Z,47.47
2019-01-23T11:15:26.645Z,56.07
2019-01-23T11:17:54.136Z,48.93
2019-01-23T11:20:21.421Z,52.87
2019-01-23T11:22:48.741Z,48.83
2019-01-23T11:25:16.057Z,56.43
2019-01-23T11:27:43.870Z,56.47
2019-01-23T11:30:12.821Z,51.13
2019-01-23T11:32:40.149Z,55.90
2019-01-23T11:35:08.510Z,56.50
2019-01-23T11:37:35.786Z,59.90
2019-01-23T11:40:04.986Z,66.30
2019-01-23T11:42:32.237Z,54.27
2019-01-23T11:44:59.534Z,60.33
2019-01-23T11:47:26.794Z,52.27
2019-01-23T11:49:54.302Z,53.03
2019-01-23T11:52:21.582Z,51.43
2019-01-23T11:54:49.086Z,62.23
2019-01-23T11:57:16.375Z,60.87
2019-01-23T11:59:43.632Z,51.30
2019-01-23T12:02:10.918Z,61.73
2019-01-23T12:04:38.198Z,54.80
2019-01-23T12:07:05.519Z,59.03
2019-01-23T12:09:32.790Z,57.90
2019-01-23T12:12:00.079Z,83.33
2019-01-23T12:14:27.586Z,53.70
2019-01-23T12:16:54.875Z,51.57
2019-01-23T12:19:22.121Z,46.20
2019-01-23T12:21:49.373Z,51.00
2019-01-23T12:24:16.655Z,55.57
2019-01-23T12:26:43.945Z,50.27
2019-01-23T12:29:11.301Z,46.27
2019-01-23T12:31:38.798Z,53.63
2019-01-23T12:34:06.335Z,56.17
2019-01-23T12:36:33.618Z,51.57
2019-01-23T12:39:01.018Z,47.37
2019-01-23T12:41:28.490Z,56.37
2019-01-23T12:43:56.039Z,53.47
2019-01-23T12:46:24.222Z,48.83
2019-01-23T12:48:51.820Z,51.07
2019-01-23T12:51:19.606Z,46.10
2019-01-23T12:53:47.139Z,50.97
2019-01-23T12:56:14.541Z,54.00
2019-01-23T12:58:41.922Z,49.33
2019-01-23T13:01:09.531Z,47.53
2019-01-23T13:03:36.815Z,52.10
2019-01-23T13:06:04.548Z,62.40
2019-01-23T13:08:32.182Z,61.00
2019-01-23T13:10:59.541Z,52.37
2019-01-23T13:13:27.231Z,63.50
2019-01-23T13:15:54.746Z,83.17
2019-01-23T13:18:22.282Z,64.20
2019-01-23T13:20:49.534Z,58.67
2019-01-23T13:23:19.785Z,59.23
2019-01-23T13:25:45.825Z,55.20
2019-01-23T13:28:13.078Z,64.63
2019-01-23T13:30:40.370Z,53.23
2019-01-23T13:33:07.871Z,50.37
2019-01-23T13:35:36.395Z,53.43
2019-01-23T13:38:04.529Z,58.57
2019-01-23T13:40:35.587Z,59.47
2019-01-23T13:43:03.133Z,54.67
2019-01-23T13:45:30.466Z,52.93
2019-01-23T13:47:57.789Z,52.40
2019-01-23T13:50:25.263Z,45.80
2019-01-23T13:52:52.614Z,53.67
2019-01-23T13:55:21.185Z,55.23
2019-01-23T13:57:48.693Z,54.40
2019-01-23T14:00:17.505Z,56.60
2019-01-23T14:02:44.963Z,64.90
2019-01-23T14:05:12.379Z,58.77
2019-01-23T14:07:39.633Z,50.47
2019-01-23T14:10:08.462Z,51.23
2019-01-23T14:12:35.716Z,52.80
2019-01-23T14:15:04.472Z,53.57
2019-01-23T14:17:31.723Z,49.93
2019-01-23T14:19:59.007Z,49.40
2019-01-23T14:22:26.535Z,57.17
2019-01-23T14:24:54.043Z,64.23
2019-01-23T14:27:21.321Z,61.40
2019-01-23T14:29:48.675Z,51.00
2019-01-23T14:32:15.925Z,51.90
2019-01-23T14:34:43.661Z,50.40
2019-01-23T14:37:11.854Z,52.20
2019-01-23T14:39:39.129Z,77.00
2019-01-23T14:42:07.017Z,54.63
2019-01-23T14:44:34.341Z,49.57
2019-01-23T14:47:01.604Z,55.50
2019-01-23T14:49:29.129Z,56.93
2019-01-23T14:51:56.389Z,46.67
2019-01-23T14:54:23.667Z,44.37
2019-01-23T14:56:51.210Z,57.33
2019-01-23T14:59:18.489Z,55.23
2019-01-23T15:01:45.747Z,51.90
2019-01-23T15:04:13.102Z,47.23
2019-01-23T15:06:40.435Z,50.60
2019-01-23T15:09:07.805Z,47.40
2019-01-23T15:11:35.310Z,47.30
2019-01-23T15:14:02.838Z,51.63
2019-01-23T15:16:30.118Z,49.03
2019-01-23T15:18:57.371Z,51.20
2019-01-23T15:21:24.647Z,48.27
2019-01-23T15:23:51.925Z,43.93
2019-01-23T15:26:19.209Z,44.97
2019-01-23T15:28:46.711Z,44.53
2019-01-23T15:31:14.339Z,43.90
2019-01-23T15:33:41.679Z,46.40
2019-01-23T15:36:08.958Z,43.97
2019-01-23T15:38:36.205Z,45.87
2019-01-23T15:41:03.562Z,46.13
2019-01-23T15:43:31.090Z,46.33
2019-01-23T15:45:58.380Z,48.10
2019-01-23T15:48:25.632Z,45.43
2019-01-23T15:50:53.008Z,48.17
2019-01-23T15:53:20.258Z,46.30
2019-01-23T15:55:47.518Z,47.03
2019-01-23T15:58:14.874Z,50.17
2019-01-23T16:00:42.426Z,47.70
2019-01-23T16:03:09.674Z,46.37
2019-01-23T16:05:36.950Z,45.03
2019-01-23T16:08:04.380Z,47.77
2019-01-23T16:10:31.820Z,47.90
2019-01-23T16:12:59.143Z,50.40
2019-01-23T16:15:27.093Z,48.83
2019-01-23T16:17:54.513Z,52.20
2019-01-23T16:20:21.942Z,53.80
2019-01-23T16:22:49.481Z,74.97
2019-01-23T16:25:17.006Z,61.17
2019-01-23T16:27:45.031Z,66.07
2019-01-23T16:30:13.850Z,62.23
2019-01-23T16:32:41.355Z,116.17
2019-01-23T16:35:09.277Z,82.00
2019-01-23T16:37:36.533Z,53.67
2019-01-23T16:40:05.378Z,50.60
2019-01-23T16:42:32.657Z,58.87
2019-01-23T16:44:59.939Z,53.90
2019-01-23T16:47:27.258Z,52.80
2019-01-23T16:49:54.543Z,47.27
2019-01-23T16:52:21.794Z,42.90
2019-01-23T16:54:49.069Z,47.57
2019-01-23T16:57:16.326Z,44.60
2019-01-23T16:59:43.610Z,45.90
2019-01-23T17:02:10.865Z,42.33
2019-01-23T17:04:38.146Z,45.73
2019-01-23T17:07:05.566Z,43.20
2019-01-23T17:09:32.846Z,43.53
2019-01-23T17:12:00.104Z,45.60
2019-01-23T17:14:27.378Z,56.97
2019-01-23T17:16:54.630Z,46.67
2019-01-23T17:19:21.911Z,50.30
2019-01-23T17:21:49.278Z,41.60
2019-01-23T17:24:16.782Z,46.87
2019-01-23T17:26:44.035Z,48.43
2019-01-23T17:29:11.310Z,43.17
2019-01-23T17:31:38.670Z,48.67
2019-01-23T17:34:05.993Z,51.10
2019-01-23T17:36:33.240Z,44.80
2019-01-23T17:39:00.780Z,44.30
2019-01-23T17:41:28.342Z,42.37
2019-01-23T17:43:55.758Z,50.23
2019-01-23T17:46:23.039Z,43.37
2019-01-23T17:48:50.403Z,42.90
2019-01-23T17:51:17.997Z,42.60
2019-01-23T17:53:45.539Z,41.30
2019-01-23T17:56:12.809Z,45.10
2019-01-23T17:58:40.334Z,43.47
2019-01-23T18:01:07.621Z,38.77
2019-01-23T18:03:35.111Z,47.20
2019-01-23T18:06:02.394Z,41.00
2019-01-23T18:08:29.928Z,47.00
2019-01-23T18:10:57.361Z,40.27
2019-01-23T18:13:24.877Z,46.70
2019-01-23T18:15:52.371Z,42.50
2019-01-23T18:18:19.903Z,41.07
2019-01-23T18:20:47.499Z,44.67
2019-01-23T18:23:14.755Z,49.40
2019-01-23T18:25:42.037Z,47.10
2019-01-23T18:28:09.572Z,45.73
2019-01-23T18:30:38.555Z,38.33
2019-01-23T18:33:07.586Z,42.70
2019-01-23T18:35:36.549Z,43.73
2019-01-23T18:38:05.361Z,45.73
2019-01-23T18:40:43.082Z,43.70
2019-01-23T18:43:12.183Z,47.40
2019-01-23T18:45:41.358Z,45.13
2019-01-23T18:48:10.422Z,43.10
2019-01-23T18:50:39.490Z,46.07
2019-01-23T18:53:06.774Z,44.07
2019-01-23T18:55:34.026Z,43.53
2019-01-23T18:58:01.309Z,52.13
2019-01-23T19:00:28.646Z,49.30
2019-01-23T19:02:55.927Z,45.03
2019-01-23T19:05:23.481Z,45.87
2019-01-23T19:07:50.880Z,47.83
2019-01-23T19:10:18.537Z,48.03
2019-01-23T19:12:46.074Z,47.07
2019-01-23T19:15:14.926Z,46.80
2019-01-23T19:17:42.250Z,44.27
2019-01-23T19:20:11.470Z,47.87
2019-01-23T19:22:38.717Z,45.37
2019-01-23T19:25:07.582Z,46.80
2019-01-23T19:27:34.866Z,43.10
2019-01-23T19:30:08.916Z,48.30
2019-01-23T19:32:31.794Z,44.37
2019-01-23T19:34:59.043Z,45.40
2019-01-23T19:37:26.295Z,48.27
2019-01-23T19:39:53.834Z,42.87
2019-01-23T19:42:21.087Z,47.47
2019-01-23T19:44:49.035Z,47.23
2019-01-23T19:47:17.566Z,49.33
2019-01-23T19:49:45.599Z,48.23
2019-01-23T19:52:12.912Z,43.20
2019-01-23T19:54:40.199Z,43.93
2019-01-23T19:57:07.446Z,46.83
2019-01-23T19:59:34.764Z,43.30
2019-01-23T20:02:02.289Z,46.03
2019-01-23T20:04:29.777Z,47.57
2019-01-23T20:06:57.037Z,45.83
2019-01-23T20:09:24.309Z,49.23
2019-01-23T20:11:51.566Z,52.57
2019-01-23T20:14:18.850Z,49.93
2019-01-23T20:16:46.378Z,48.47
2019-01-23T20:19:14.371Z,46.43
2019-01-23T20:21:41.738Z,50.60
2019-01-23T20:24:09.263Z,50.17
2019-01-23T20:26:36.522Z,50.83
2019-01-23T20:29:03.941Z,43.80
2019-01-23T20:31:31.298Z,47.33
2019-01-23T20:33:58.562Z,48.83
2019-01-23T20:36:25.833Z,49.87
2019-01-23T20:38:53.103Z,46.77
2019-01-23T20:41:20.353Z,50.73
2019-01-23T20:43:47.622Z,45.10
2019-01-23T20:46:14.962Z,49.17
2019-01-23T20:48:42.524Z,52.97
2019-01-23T20:51:10.035Z,46.17
2019-01-23T20:53:37.542Z,49.03
2019-01-23T20:56:04.903Z,45.57
2019-01-23T20:58:32.186Z,48.30
2019-01-23T21:00:59.437Z,43.80
2019-01-23T21:03:26.726Z,45.20
2019-01-23T21:05:53.983Z,48.80
2019-01-23T21:08:21.526Z,55.77
2019-01-23T21:10:48.890Z,53.87
2019-01-23T21:13:16.174Z,52.60
2019-01-23T21:15:43.695Z,58.17
2019-01-23T21:18:10.979Z,49.03
2019-01-23T21:20:38.497Z,52.70
2019-01-23T21:23:06.077Z,53.53
2019-01-23T21:25:33.349Z,54.90
2019-01-23T21:28:00.710Z,54.47
2019-01-23T21:30:28.129Z,50.50
2019-01-23T21:32:55.541Z,44.10
2019-01-23T21:35:22.902Z,55.80
2019-01-23T21:37:50.430Z,52.60
2019-01-23T21:40:19.133Z,53.00
2019-01-23T21:42:46.634Z,54.53
2019-01-23T21:45:14.670Z,48.87
2019-01-23T21:47:41.922Z,49.90
2019-01-23T21:50:16.168Z,51.97
2019-01-23T21:52:43.485Z,49.97
2019-01-23T21:55:11.737Z,52.67
2019-01-23T21:57:39.080Z,45.30
2019-01-23T22:00:13.906Z,53.03
2019-01-23T22:02:41.402Z,49.97
2019-01-23T22:05:10.239Z,45.07
2019-01-23T22:07:37.562Z,47.40
2019-01-23T22:10:06.618Z,49.60
2019-01-23T22:12:34.150Z,50.73
2019-01-23T22:15:01.655Z,43.63
2019-01-23T22:17:29.202Z,46.03
2019-01-23T22:19:56.461Z,43.70
2019-01-23T22:22:24.014Z,45.40
2019-01-23T22:24:51.262Z,46.27
2019-01-23T22:27:18.545Z,42.90
2019-01-23T22:29:45.798Z,46.47
2019-01-23T22:32:13.077Z,46.03
2019-01-23T22:34:40.337Z,52.17
2019-01-23T22:37:07.614Z,48.93
2019-01-23T22:39:34.869Z,47.10
2019-01-23T22:42:02.160Z,51.93
2019-01-23T22:44:29.410Z,47.77
2019-01-23T22:46:56.950Z,43.20
2019-01-23T22:49:24.229Z,40.50
2019-01-23T22:51:51.514Z,44.70
2019-01-23T22:54:18.785Z,48.00
2019-01-23T22:56:46.043Z,40.20
2019-01-23T22:59:13.602Z,46.37
2019-01-23T23:01:40.862Z,45.30
2019-01-23T23:04:08.188Z,46.50
2019-01-23T23:06:35.721Z,39.73
2019-01-23T23:09:05.002Z,43.93
2019-01-23T23:11:32.289Z,42.17
2019-01-23T23:13:59.790Z,43.27
2019-01-23T23:16:27.083Z,43.80
2019-01-23T23:18:54.614Z,43.43
2019-01-23T23:21:21.866Z,42.40
2019-01-23T23:23:49.149Z,46.40
2019-01-23T23:26:16.405Z,44.37
2019-01-23T23:28:43.690Z,44.57
2019-01-23T23:31:11.198Z,48.13
2019-01-23T23:33:38.718Z,48.77
2019-01-23T23:36:06.155Z,44.20
2019-01-23T23:38:33.488Z,49.70
2019-01-23T23:41:01.018Z,48.73
2019-01-23T23:43:28.302Z,46.00
2019-01-23T23:45:55.581Z,43.30
2019-01-23T23:48:22.868Z,41.17
2019-01-23T23:50:50.114Z,43.80
2019-01-23T23:53:17.473Z,47.87
2019-01-23T23:55:44.721Z,47.40
2019-01-23T23:58:12.011Z,50.37
